createdAt,value
2023-03-06T00:02:42.040Z,4.15
2023-03-06T00:06:07.557Z,4.18
2023-03-06T00:09:11.798Z,3.97
2023-03-06T00:12:15.235Z,4.23
2023-03-06T00:15:28.495Z,4.60
2023-03-06T00:18:36.051Z,4.05
2023-03-06T00:21:48.239Z,3.88
2023-03-06T00:25:05.216Z,3.92
2023-03-06T00:28:14.941Z,3.87
2023-03-06T00:31:31.865Z,3.42
2023-03-06T00:34:53.122Z,3.80
2023-03-06T00:38:04.290Z,3.50
2023-03-06T00:41:14.214Z,2.97
2023-03-06T00:44:18.252Z,3.13
2023-03-06T00:47:26.645Z,3.53
2023-03-06T00:50:30.473Z,3.75
2023-03-06T00:53:44.191Z,3.97
2023-03-06T00:56:49.158Z,3.80
2023-03-06T00:59:53.778Z,3.57
2023-03-06T01:02:56.543Z,3.97
2023-03-06T01:06:05.092Z,4.03
2023-03-06T01:09:14.670Z,3.30
2023-03-06T01:12:23.485Z,3.33
2023-03-06T01:15:54.095Z,3.73
2023-03-06T01:18:57.010Z,3.60
2023-03-06T01:22:06.525Z,3.58
2023-03-06T01:25:11.398Z,3.20
2023-03-06T01:28:21.209Z,3.47
2023-03-06T01:31:24.879Z,3.57
2023-03-06T01:34:47.534Z,3.60
2023-03-06T01:37:59.004Z,2.88
2023-03-06T01:41:05.879Z,3.00
2023-03-06T01:44:15.234Z,3.03
2023-03-06T01:47:25.707Z,3.20
2023-03-06T01:50:28.608Z,3.20
2023-03-06T01:53:34.902Z,3.00
2023-03-06T01:56:41.053Z,3.20
2023-03-06T01:59:55.546Z,3.00
2023-03-06T02:03:14.118Z,3.10
2023-03-06T02:06:22.045Z,3.05
2023-03-06T02:09:30.986Z,3.83
2023-03-06T02:12:42.305Z,3.28
2023-03-06T02:15:50.442Z,3.40
2023-03-06T02:19:21.756Z,3.37
2023-03-06T02:22:30.039Z,3.22
2023-03-06T02:25:40.121Z,3.60
2023-03-06T02:28:43.280Z,3.40
2023-03-06T02:31:49.239Z,3.67
2023-03-06T02:35:03.153Z,3.30
2023-03-06T02:38:16.088Z,3.20
2023-03-06T02:41:18.732Z,3.20
2023-03-06T02:44:27.665Z,3.20
2023-03-06T02:47:47.542Z,4.13
2023-03-06T02:50:50.897Z,3.40
2023-03-06T02:53:58.487Z,3.20
2023-03-06T02:57:03.361Z,2.90
2023-03-06T03:00:10.265Z,3.00
2023-03-06T03:03:21.337Z,3.50
2023-03-06T03:06:35.014Z,3.23
2023-03-06T03:09:37.409Z,3.30
2023-03-06T03:12:40.974Z,2.88
2023-03-06T03:16:20.076Z,7.50
2023-03-06T03:19:23.608Z,3.80
2023-03-06T03:22:33.499Z,3.30
2023-03-06T03:25:38.355Z,3.35
2023-03-06T03:28:47.322Z,2.88
2023-03-06T03:31:56.754Z,3.30
2023-03-06T03:35:01.409Z,3.33
2023-03-06T03:38:15.711Z,2.90
2023-03-06T03:41:20.612Z,3.42
2023-03-06T03:44:27.279Z,3.97
2023-03-06T03:47:32.261Z,3.30
2023-03-06T03:50:42.224Z,3.08
2023-03-06T03:53:48.612Z,3.10
2023-03-06T03:56:55.523Z,3.20
2023-03-06T04:00:07.056Z,3.83
2023-03-06T04:03:37.295Z,2.90
2023-03-06T04:06:45.508Z,3.15
2023-03-06T04:09:57.924Z,2.80
2023-03-06T04:13:02.812Z,2.83
2023-03-06T04:16:05.543Z,3.10
2023-03-06T04:19:09.820Z,3.40
2023-03-06T04:22:18.269Z,3.33
2023-03-06T04:25:21.725Z,17.17
2023-03-06T04:28:29.749Z,4.82
2023-03-06T04:31:35.002Z,4.40
2023-03-06T04:34:41.065Z,3.10
2023-03-06T04:37:45.750Z,3.70
2023-03-06T04:40:59.385Z,3.40
2023-03-06T04:44:09.400Z,3.60
2023-03-06T04:47:12.341Z,3.22
2023-03-06T04:50:21.053Z,3.08
2023-03-06T04:53:27.387Z,3.42
2023-03-06T04:56:31.008Z,6.67
2023-03-06T04:59:43.148Z,5.13
2023-03-06T05:02:51.150Z,5.00
2023-03-06T05:06:00.306Z,4.88
2023-03-06T05:09:04.366Z,3.70
2023-03-06T05:12:24.059Z,3.63
2023-03-06T05:15:26.330Z,3.80
2023-03-06T05:18:37.413Z,4.70
2023-03-06T05:21:44.976Z,3.97
2023-03-06T05:24:50.079Z,3.67
2023-03-06T05:27:54.922Z,3.17
2023-03-06T05:30:57.190Z,3.90
2023-03-06T05:34:05.643Z,3.95
2023-03-06T05:37:17.733Z,4.63
2023-03-06T05:40:32.446Z,4.03
2023-03-06T05:43:37.668Z,4.30
2023-03-06T05:46:47.015Z,4.22
2023-03-06T05:49:52.598Z,3.97
2023-03-06T05:52:54.918Z,4.18
2023-03-06T05:56:15.771Z,4.05
2023-03-06T05:59:25.007Z,3.90
2023-03-06T06:02:32.320Z,4.10
2023-03-06T06:05:44.899Z,4.10
2023-03-06T06:08:59.863Z,4.40
2023-03-06T06:12:05.191Z,4.07
2023-03-06T06:15:09.787Z,4.53
2023-03-06T06:18:13.129Z,5.50
2023-03-06T06:21:18.985Z,7.63
2023-03-06T06:24:35.072Z,6.35
2023-03-06T06:27:42.290Z,6.40
2023-03-06T06:30:55.400Z,5.60
2023-03-06T06:34:03.682Z,5.90
2023-03-06T06:37:17.140Z,5.10
2023-03-06T06:40:23.904Z,5.70
2023-03-06T06:43:31.287Z,5.90
2023-03-06T06:49:58.493Z,4.35
2023-03-06T06:53:21.777Z,4.72
2023-03-06T06:56:36.861Z,4.97
2023-03-06T06:59:48.212Z,4.72
2023-03-06T07:02:51.623Z,5.47
2023-03-06T07:05:58.205Z,5.50
2023-03-06T07:09:00.508Z,5.95
2023-03-06T07:12:10.449Z,5.60
2023-03-06T07:15:32.204Z,5.80
2023-03-06T07:18:37.969Z,5.93
2023-03-06T07:21:44.936Z,5.70
2023-03-06T07:24:47.521Z,5.85
2023-03-06T07:27:58.344Z,6.18
2023-03-06T07:31:43.389Z,5.38
2023-03-06T07:34:46.588Z,5.60
2023-03-06T07:37:51.931Z,6.10
2023-03-06T07:41:06.407Z,6.70
2023-03-06T07:44:20.639Z,6.78
2023-03-06T07:47:37.432Z,6.40
2023-03-06T07:50:59.665Z,6.60
2023-03-06T07:54:05.882Z,7.43
2023-03-06T07:57:11.127Z,7.85
2023-03-06T08:00:21.515Z,9.57
2023-03-06T08:03:23.748Z,8.48
2023-03-06T08:06:30.969Z,8.90
2023-03-06T08:09:43.651Z,10.93
2023-03-06T08:12:55.497Z,10.93
2023-03-06T08:16:02.696Z,8.77
2023-03-06T08:19:08.671Z,7.28
2023-03-06T08:22:26.540Z,7.73
2023-03-06T08:25:30.664Z,6.75
2023-03-06T08:28:38.304Z,6.47
2023-03-06T08:31:49.897Z,6.07
2023-03-06T08:34:52.697Z,6.15
2023-03-06T08:38:00.566Z,6.70
2023-03-06T08:41:20.445Z,5.60
2023-03-06T08:44:28.315Z,5.90
2023-03-06T08:47:30.734Z,5.05
2023-03-06T08:50:43.071Z,5.93
2023-03-06T08:53:56.066Z,6.20
2023-03-06T08:57:05.689Z,6.15
2023-03-06T09:00:10.332Z,6.50
2023-03-06T09:03:26.178Z,5.53
2023-03-06T09:06:38.172Z,6.38
2023-03-06T09:09:44.804Z,5.67
2023-03-06T09:12:56.609Z,5.18
2023-03-06T09:16:03.208Z,5.45
2023-03-06T09:19:17.436Z,6.57
2023-03-06T09:22:22.708Z,6.63
2023-03-06T09:25:34.465Z,5.17
2023-03-06T09:28:51.707Z,5.65
2023-03-06T09:31:56.465Z,6.78
2023-03-06T09:35:11.968Z,6.38
2023-03-06T09:38:28.293Z,5.15
2023-03-06T09:41:39.532Z,6.83
2023-03-06T09:45:03.295Z,5.72
2023-03-06T09:48:13.489Z,6.40
2023-03-06T09:51:37.055Z,2.97
2023-03-06T09:55:26.536Z,4.50
2023-03-06T09:59:01.621Z,6.50
2023-03-06T10:02:51.282Z,5.68
2023-03-06T10:06:33.032Z,6.10
2023-03-06T10:09:46.457Z,5.85
2023-03-06T10:13:06.682Z,6.68
2023-03-06T10:16:43.525Z,6.57
2023-03-06T10:19:48.597Z,6.07
2023-03-06T10:23:19.172Z,7.57
2023-03-06T10:26:34.907Z,6.53
2023-03-06T10:30:07.267Z,6.13
2023-03-06T10:33:36.451Z,6.53
2023-03-06T10:36:46.574Z,7.03
2023-03-06T10:40:17.205Z,5.35
2023-03-06T10:43:29.714Z,7.80
2023-03-06T10:46:49.653Z,8.25
2023-03-06T10:50:41.383Z,7.90
2023-03-06T10:53:53.463Z,7.70
2023-03-06T10:57:26.834Z,6.80
2023-03-06T11:00:43.483Z,6.70
2023-03-06T11:04:14.624Z,7.15
2023-03-06T11:07:28.606Z,6.90
2023-03-06T11:10:48.278Z,7.47
2023-03-06T11:13:58.822Z,8.05
2023-03-06T11:17:36.826Z,6.75
2023-03-06T11:20:53.035Z,4.07
2023-03-06T11:24:04.751Z,7.60
2023-03-06T11:27:35.956Z,6.80
2023-03-06T11:31:04.137Z,7.82
2023-03-06T11:34:55.274Z,5.10
2023-03-06T11:38:25.902Z,7.05
2023-03-06T11:42:10.960Z,6.80
2023-03-06T11:45:34.847Z,7.20
2023-03-06T11:48:48.241Z,8.48
2023-03-06T11:52:22.893Z,7.15
2023-03-06T11:55:32.083Z,7.57
2023-03-06T11:59:01.210Z,7.43
2023-03-06T12:02:25.027Z,7.30
2023-03-06T12:05:40.841Z,7.93
2023-03-06T12:09:16.859Z,8.48
2023-03-06T12:12:23.116Z,6.85
2023-03-06T12:16:20.684Z,7.87
2023-03-06T12:19:42.453Z,5.38
2023-03-06T12:23:18.087Z,6.60
2023-03-06T12:26:37.870Z,7.10
2023-03-06T12:29:52.258Z,5.97
2023-03-06T12:33:15.577Z,8.07
2023-03-06T12:36:34.272Z,9.07
2023-03-06T12:39:46.529Z,7.93
2023-03-06T12:43:09.159Z,8.52
2023-03-06T12:46:27.340Z,8.70
2023-03-06T12:49:40.035Z,9.47
2023-03-06T12:52:46.341Z,9.52
2023-03-06T12:55:58.691Z,9.73
2023-03-06T13:02:34.395Z,8.88
2023-03-06T13:06:02.092Z,9.10
2023-03-06T13:09:45.810Z,8.13
2023-03-06T13:13:48.139Z,6.75
2023-03-06T13:17:24.779Z,8.52
2023-03-06T13:20:35.031Z,8.80
2023-03-06T13:23:51.704Z,9.23
2023-03-06T13:27:03.097Z,8.88
2023-03-06T13:30:47.333Z,10.18
2023-03-06T13:33:58.563Z,10.88
2023-03-06T13:37:21.106Z,9.00
2023-03-06T13:40:31.891Z,9.85
2023-03-06T13:43:49.966Z,9.40
2023-03-06T13:47:14.201Z,9.30
2023-03-06T13:50:58.341Z,7.22
2023-03-06T13:54:16.213Z,9.50
2023-03-06T13:57:23.395Z,9.32
2023-03-06T14:01:06.549Z,6.45
2023-03-06T14:04:35.770Z,9.90
2023-03-06T14:07:46.320Z,9.80
2023-03-06T14:11:04.453Z,9.30
2023-03-06T14:14:11.579Z,9.50
2023-03-06T14:17:33.365Z,11.25
2023-03-06T14:20:43.963Z,10.02
2023-03-06T14:24:03.376Z,8.18
2023-03-06T14:27:21.543Z,9.67
2023-03-06T14:30:36.872Z,9.38
2023-03-06T14:33:51.765Z,9.55
2023-03-06T14:37:23.831Z,9.15
2023-03-06T14:40:35.686Z,9.00
2023-03-06T14:43:38.434Z,10.40
2023-03-06T14:47:14.914Z,9.45
2023-03-06T14:50:41.068Z,8.88
2023-03-06T14:53:45.982Z,9.32
2023-03-06T14:57:01.223Z,9.85
2023-03-06T15:00:12.364Z,10.17
2023-03-06T15:03:24.411Z,10.13
2023-03-06T15:06:54.024Z,9.82
2023-03-06T15:10:01.727Z,9.13
2023-03-06T15:13:23.047Z,9.55
2023-03-06T15:16:32.129Z,9.07
2023-03-06T15:19:39.406Z,7.93
2023-03-06T15:22:51.070Z,8.23
2023-03-06T15:26:04.250Z,9.52
2023-03-06T15:29:10.733Z,8.48
2023-03-06T15:32:35.508Z,7.00
2023-03-06T15:35:52.555Z,9.55
2023-03-06T15:39:02.620Z,9.63
2023-03-06T15:42:08.073Z,8.43
2023-03-06T15:45:19.502Z,8.40
2023-03-06T15:48:22.939Z,8.23
2023-03-06T15:51:35.199Z,8.23
2023-03-06T15:54:42.804Z,9.05
2023-03-06T15:58:00.127Z,8.48
2023-03-06T16:01:05.424Z,7.90
2023-03-06T16:04:13.712Z,9.50
2023-03-06T16:07:16.922Z,8.80
2023-03-06T16:10:34.140Z,8.02
2023-03-06T16:13:41.154Z,8.32
2023-03-06T16:16:44.714Z,9.82
2023-03-06T16:19:51.883Z,9.80
2023-03-06T16:23:00.019Z,9.38
2023-03-06T16:26:24.267Z,8.73
2023-03-06T16:29:33.756Z,9.07
2023-03-06T16:32:39.102Z,10.25
2023-03-06T16:35:48.855Z,8.47
2023-03-06T16:39:04.265Z,9.30
2023-03-06T16:42:18.358Z,8.38
2023-03-06T16:45:29.179Z,8.55
2023-03-06T16:48:34.575Z,8.90
2023-03-06T16:51:39.716Z,9.20
2023-03-06T16:54:45.803Z,9.07
2023-03-06T16:57:52.684Z,9.90
2023-03-06T17:01:01.757Z,8.82
2023-03-06T17:04:06.905Z,9.45
2023-03-06T17:07:16.245Z,9.10
2023-03-06T17:10:27.283Z,9.00
2023-03-06T17:13:30.695Z,8.18
2023-03-06T17:16:41.984Z,9.40
2023-03-06T17:19:56.592Z,9.70
2023-03-06T17:23:10.502Z,8.97
2023-03-06T17:26:19.686Z,7.38
2023-03-06T17:29:23.750Z,8.68
2023-03-06T17:32:26.757Z,10.25
2023-03-06T17:35:33.619Z,9.88
2023-03-06T17:38:41.605Z,10.83
2023-03-06T17:41:52.742Z,10.57
2023-03-06T17:44:58.814Z,10.00
2023-03-06T17:48:09.463Z,10.90
2023-03-06T17:51:28.589Z,11.77
2023-03-06T17:54:49.744Z,11.73
2023-03-06T17:57:57.911Z,12.00
2023-03-06T18:01:02.736Z,11.23
2023-03-06T18:04:05.164Z,10.40
2023-03-06T18:07:10.337Z,11.23
2023-03-06T18:13:40.066Z,10.75
2023-03-06T18:16:45.071Z,10.82
2023-03-06T18:19:55.707Z,11.05
2023-03-06T18:23:10.609Z,10.27
2023-03-06T18:26:38.759Z,11.23
2023-03-06T18:29:43.933Z,10.07
2023-03-06T18:32:54.984Z,11.73
2023-03-06T18:36:02.066Z,11.23
2023-03-06T18:39:23.580Z,11.68
2023-03-06T18:42:28.853Z,12.20
2023-03-06T18:45:37.649Z,11.77
2023-03-06T18:49:13.071Z,12.27
2023-03-06T18:52:26.216Z,12.38
2023-03-06T18:55:38.572Z,11.75
2023-03-06T18:58:56.240Z,13.27
2023-03-06T19:02:01.490Z,12.85
2023-03-06T19:05:10.249Z,12.50
2023-03-06T19:08:15.569Z,12.95
2023-03-06T19:11:32.217Z,13.60
2023-03-06T19:14:41.920Z,13.53
2023-03-06T19:17:50.360Z,12.70
2023-03-06T19:21:02.496Z,13.52
2023-03-06T19:24:14.471Z,12.20
2023-03-06T19:27:22.663Z,12.77
2023-03-06T19:30:28.157Z,12.73
2023-03-06T19:33:40.500Z,13.25
2023-03-06T19:36:45.381Z,13.75
2023-03-06T19:39:53.218Z,12.80
2023-03-06T19:43:05.760Z,12.77
2023-03-06T19:46:20.005Z,14.20
2023-03-06T19:49:33.389Z,13.73
2023-03-06T19:52:40.008Z,12.85
2023-03-06T19:55:49.191Z,13.15
2023-03-06T19:59:00.991Z,13.38
2023-03-06T20:02:15.929Z,12.53
2023-03-06T20:05:37.598Z,13.00
2023-03-06T20:08:53.250Z,13.32
2023-03-06T20:12:00.211Z,13.32
2023-03-06T20:15:02.694Z,14.30
2023-03-06T20:18:13.079Z,14.80
2023-03-06T20:21:23.368Z,14.73
2023-03-06T20:24:31.608Z,14.88
2023-03-06T20:27:42.726Z,14.00
2023-03-06T20:30:56.913Z,14.88
2023-03-06T20:34:23.150Z,16.13
2023-03-06T20:37:45.517Z,16.40
2023-03-06T20:40:50.251Z,19.88
2023-03-06T20:43:59.512Z,18.27
2023-03-06T20:47:04.697Z,16.15
2023-03-06T20:50:12.733Z,15.53
2023-03-06T20:53:22.071Z,17.40
2023-03-06T20:56:33.235Z,17.02
2023-03-06T20:59:48.093Z,16.55
2023-03-06T21:03:01.601Z,14.15
2023-03-06T21:06:06.220Z,15.97
2023-03-06T21:09:13.048Z,16.23
2023-03-06T21:12:29.679Z,16.13
2023-03-06T21:15:58.174Z,20.35
2023-03-06T21:19:13.989Z,21.90
2023-03-06T21:22:30.275Z,21.23
2023-03-06T21:25:41.234Z,20.15
2023-03-06T21:28:55.319Z,21.02
2023-03-06T21:32:06.454Z,18.50
2023-03-06T21:35:25.522Z,19.63
2023-03-06T21:38:34.680Z,20.70
2023-03-06T21:41:50.751Z,19.05
2023-03-06T21:44:56.941Z,20.80
2023-03-06T21:48:05.936Z,22.40
2023-03-06T21:51:16.959Z,22.42
2023-03-06T21:54:33.390Z,21.13
2023-03-06T21:57:38.757Z,20.27
2023-03-06T22:00:52.769Z,20.75
2023-03-06T22:04:00.197Z,21.83
2023-03-06T22:07:10.163Z,21.50
2023-03-06T22:10:14.298Z,21.23
2023-03-06T22:13:23.358Z,21.05
2023-03-06T22:16:25.717Z,21.38
2023-03-06T22:19:29.900Z,20.77
2023-03-06T22:22:36.824Z,21.95
2023-03-06T22:25:41.517Z,23.13
2023-03-06T22:28:43.828Z,22.75
2023-03-06T22:31:48.511Z,22.73
2023-03-06T22:35:01.017Z,22.05
2023-03-06T22:38:06.232Z,22.00
2023-03-06T22:41:23.012Z,22.43
2023-03-06T22:44:42.734Z,21.00
2023-03-06T22:47:55.199Z,22.02
2023-03-06T22:51:14.304Z,20.48
2023-03-06T22:54:26.320Z,20.70
2023-03-06T22:57:36.271Z,21.17
2023-03-06T23:00:46.859Z,20.52
2023-03-06T23:03:53.189Z,19.80
2023-03-06T23:07:11.359Z,19.70
2023-03-06T23:10:20.058Z,18.90
2023-03-06T23:13:52.554Z,18.93
2023-03-06T23:17:13.697Z,19.00
2023-03-06T23:20:41.302Z,20.08
2023-03-06T23:24:05.475Z,18.17
2023-03-06T23:27:10.448Z,19.38
2023-03-06T23:30:24.790Z,20.27
2023-03-06T23:33:40.190Z,19.45
2023-03-06T23:36:44.043Z,21.98
2023-03-06T23:39:52.718Z,20.95
2023-03-06T23:42:58.233Z,22.58
2023-03-06T23:46:06.261Z,22.30
2023-03-06T23:49:08.945Z,22.73
2023-03-06T23:52:13.813Z,23.77
2023-03-06T23:55:19.376Z,23.63
2023-03-06T23:58:35.662Z,24.23
